Time;durP1;ratioP1;P1;durP2;ratioP2;P2;SDS_P1;SDS_P2;PMS_P1;PMS_P2;Temp;Humidity;BMP_temperature;BMP_pressure;BME280_temperature;BME280_humidity;BME280_pressure;Samples;Min_cycle;Max_cycle;Signal;HPM_P1;HPM_P2
2022/09/25 00:00:51;;;;;;;2.63;2.43;;;;;;;14.08;100.00;99870.59;4998008;28;20481;-52
2022/09/25 00:03:18;;;;;;;1.70;1.60;;;;;;;14.11;100.00;99875.78;5003384;28;20451;-50
2022/09/25 00:05:46;;;;;;;2.53;2.23;;;;;;;14.07;100.00;99873.34;5016358;28;20456;-51
2022/09/25 00:08:14;;;;;;;3.00;1.90;;;;;;;14.07;100.00;99870.66;5035205;28;20831;-53
2022/09/25 00:10:50;;;;;;;2.13;2.03;;;;;;;13.93;100.00;99880.22;5035373;28;20455;-50
2022/09/25 00:13:18;;;;;;;3.77;1.50;;;;;;;13.89;100.00;99881.34;5022992;28;20888;-51
2022/09/25 00:15:50;;;;;;;3.07;2.30;;;;;;;14.01;100.00;99879.88;5035698;28;20456;-52
2022/09/25 00:21:04;;;;;;;2.60;2.00;;;;;;;14.05;100.00;99875.22;5034878;28;20525;-51
2022/09/25 00:23:32;;;;;;;2.13;2.03;;;;;;;14.15;100.00;99881.84;5030530;28;20804;-51
2022/09/25 00:26:00;;;;;;;1.93;1.83;;;;;;;14.19;100.00;99878.94;5035178;28;20971;-51
2022/09/25 00:28:28;;;;;;;2.63;2.33;;;;;;;14.18;100.00;99871.88;5035428;28;20532;-50
2022/09/25 00:30:55;;;;;;;2.50;2.30;;;;;;;14.22;100.00;99873.44;5017407;28;20483;-50
2022/09/25 00:33:23;;;;;;;4.47;3.47;;;;;;;14.18;100.00;99871.88;5034873;28;21089;-50
2022/09/25 00:35:49;;;;;;;3.60;3.30;;;;;;;14.18;100.00;99871.00;5026072;28;20455;-50
2022/09/25 00:38:16;;;;;;;2.33;2.23;;;;;;;14.14;100.00;99861.41;5029144;28;20451;-51
2022/09/25 00:40:42;;;;;;;10.23;3.43;;;;;;;14.06;100.00;99861.78;5035154;28;20460;-51
2022/09/25 00:43:33;;;;;;;2.40;2.30;;;;;;;14.11;100.00;99862.41;5017484;28;20455;-52
2022/09/25 00:46:04;;;;;;;3.27;2.03;;;;;;;14.24;100.00;99860.84;5031683;28;20462;-50
2022/09/25 00:48:31;;;;;;;2.60;2.40;;;;;;;14.29;100.00;99860.66;5033465;28;20448;-51
2022/09/25 00:50:59;;;;;;;2.93;2.63;;;;;;;14.27;100.00;99861.66;5018770;28;20483;-50
2022/09/25 00:53:33;;;;;;;2.77;2.57;;;;;;;14.14;100.00;99858.75;5033647;28;20509;-50
2022/09/25 00:56:02;;;;;;;1.83;1.73;;;;;;;14.13;100.00;99859.69;5034161;28;20455;-52
2022/09/25 00:58:31;;;;;;;3.37;3.17;;;;;;;14.12;100.00;99857.97;5034859;28;20993;-50
2022/09/25 01:00:59;;;;;;;10.07;3.73;;;;;;;14.29;100.00;99862.44;5023439;28;20472;-51
2022/09/25 01:03:26;;;;;;;2.57;2.33;;;;;;;14.24;100.00;99858.19;5021825;28;20465;-51
2022/09/25 01:05:53;;;;;;;3.83;3.53;;;;;;;14.24;100.00;99857.31;5010243;28;20965;-50
2022/09/25 01:08:25;;;;;;;5.33;2.73;;;;;;;14.26;100.00;99857.28;5034854;28;20455;-51
2022/09/25 01:10:51;;;;;;;1.97;1.87;;;;;;;14.22;100.00;99854.72;5025363;28;20481;-51
2022/09/25 01:13:19;;;;;;;3.37;3.07;;;;;;;14.19;100.00;99857.56;5035050;28;20459;-51
2022/09/25 01:15:53;;;;;;;2.87;2.30;;;;;;;14.21;100.00;99852.13;5034370;28;20525;-50
2022/09/25 01:18:51;;;;;;;2.40;2.30;;;;;;;14.16;100.00;99859.53;5032363;28;20506;-50
2022/09/25 01:21:36;;;;;;;3.17;2.27;;;;;;;14.25;100.00;99856.38;5005786;28;20525;-52
2022/09/25 01:24:02;;;;;;;3.30;3.10;;;;;;;14.29;100.00;99852.63;5028442;28;20513;-51
2022/09/25 01:27:05;;;;;;;2.73;2.43;;;;;;;14.17;100.00;99854.09;5013594;28;20539;-51
2022/09/25 01:30:09;;;;;;;3.00;2.47;;;;;;;14.25;100.00;99859.03;5008311;28;20456;-51
2022/09/25 01:32:35;;;;;;;2.83;2.67;;;;;;;14.22;100.00;99843.16;5009196;28;20998;-52
2022/09/25 01:35:39;;;;;;;6.60;3.30;;;;;;;14.22;100.00;99846.72;5006314;28;20456;-51
2022/09/25 01:38:24;;;;;;;3.43;2.33;;;;;;;14.09;100.00;99839.38;5013385;28;20463;-51
2022/09/25 01:40:54;;;;;;;4.30;3.50;;;;;;;14.03;100.00;99839.69;5004282;28;20492;-51
2022/09/25 01:43:30;;;;;;;3.63;3.20;;;;;;;14.09;100.00;99842.91;5026684;28;20470;-51
2022/09/25 01:46:10;;;;;;;4.20;3.30;;;;;;;14.10;100.00;99846.47;5031123;28;20929;-52
2022/09/25 01:48:41;;;;;;;2.73;2.63;;;;;;;14.12;100.00;99847.28;5031182;28;20455;-51
2022/09/25 01:51:15;;;;;;;6.03;3.90;;;;;;;14.09;100.00;99837.56;5013379;28;20535;-51
2022/09/25 01:53:47;;;;;;;11.10;2.77;;;;;;;14.05;100.00;99844.03;5006322;28;20451;-52
2022/09/25 01:56:31;;;;;;;4.80;3.17;;;;;;;14.02;100.00;99838.84;5015552;28;20925;-50
2022/09/25 01:59:07;;;;;;;2.57;2.07;;;;;;;14.06;100.00;99834.19;5030866;28;20517;-52
2022/09/25 02:01:40;;;;;;;12.33;3.50;;;;;;;14.03;100.00;99826.34;5030718;28;20471;-52
2022/09/25 02:04:10;;;;;;;2.07;1.97;;;;;;;14.04;100.00;99831.59;5030612;28;20483;-52
2022/09/25 02:06:39;;;;;;;3.60;3.03;;;;;;;14.02;100.00;99835.31;5018793;28;20472;-52
2022/09/25 02:09:12;;;;;;;3.77;3.47;;;;;;;13.98;100.00;99831.03;5030376;28;20540;-52
2022/09/25 02:11:44;;;;;;;1.80;1.40;;;;;;;13.86;100.00;99832.53;5030392;28;20498;-51
2022/09/25 02:14:26;;;;;;;6.70;3.40;;;;;;;13.90;100.00;99836.78;5030307;28;20501;-51
2022/09/25 02:16:56;;;;;;;2.97;2.77;;;;;;;13.85;100.00;99839.69;5030676;28;20885;-51
2022/09/25 02:22:30;;;;;;;2.20;2.10;;;;;;;13.90;100.00;99829.63;5030171;28;20859;-51
2022/09/25 02:25:02;;;;;;;2.80;2.60;;;;;;;13.82;100.00;99839.81;5009688;28;20820;-51
2022/09/25 02:27:28;;;;;;;3.93;3.23;;;;;;;13.89;100.00;99829.69;5026907;28;20957;-51
2022/09/25 02:29:57;;;;;;;3.47;3.27;;;;;;;13.95;100.00;99834.72;5017634;28;20456;-51
2022/09/25 02:32:32;;;;;;;3.50;2.90;;;;;;;14.02;100.00;99830.81;5028981;28;20479;-51
2022/09/25 02:34:59;;;;;;;2.80;2.70;;;;;;;13.98;100.00;99834.59;5023660;28;20499;-51
2022/09/25 02:37:26;;;;;;;3.60;3.40;;;;;;;13.94;100.00;99828.50;5030076;28;20463;-51
2022/09/25 02:39:56;;;;;;;4.80;4.30;;;;;;;13.97;100.00;99835.50;5019596;28;21068;-51
2022/09/25 02:42:35;;;;;;;4.03;3.67;;;;;;;13.98;100.00;99834.59;5029837;28;20471;-51
2022/09/25 02:45:11;;;;;;;2.93;2.73;;;;;;;14.02;100.00;99832.63;5029900;28;20463;-52
2022/09/25 02:47:46;;;;;;;2.37;2.17;;;;;;;14.01;100.00;99837.13;5012349;28;21078;-50
2022/09/25 02:50:33;;;;;;;5.80;3.50;;;;;;;14.06;100.00;99836.88;5006146;28;20463;-51
2022/09/25 02:53:37;;;;;;;8.30;2.97;;;;;;;14.09;100.00;99834.03;5052000;23;20988;-56
2022/09/25 02:56:24;;;;;;;2.50;1.80;;;;;;;14.03;100.00;99837.91;5043884;28;20454;-56
2022/09/25 02:58:57;;;;;;;3.03;2.73;;;;;;;14.00;100.00;99831.84;5048960;28;20499;-56
2022/09/25 03:01:27;;;;;;;2.33;2.10;;;;;;;14.08;100.00;99829.63;5055964;28;20446;-56
2022/09/25 03:03:57;;;;;;;7.93;2.77;;;;;;;14.14;100.00;99834.69;5058327;28;21013;-56
2022/09/25 03:06:25;;;;;;;4.13;3.13;;;;;;;14.14;100.00;99824.00;5054658;28;20497;-56
2022/09/25 03:08:55;;;;;;;2.20;2.00;;;;;;;14.13;100.00;99832.97;5057276;28;21016;-55
2022/09/25 03:11:25;;;;;;;3.20;2.90;;;;;;;14.09;100.00;99834.91;5055659;28;20465;-57
2022/09/25 03:14:00;;;;;;;3.43;3.23;;;;;;;14.12;100.00;99840.13;5055779;28;20475;-56
2022/09/25 03:16:51;;;;;;;3.50;3.20;;;;;;;14.10;100.00;99838.44;5045283;28;20452;-56
2022/09/25 03:19:21;;;;;;;2.77;2.57;;;;;;;14.08;100.00;99838.53;5055594;28;20493;-56
2022/09/25 03:21:48;;;;;;;4.47;2.77;;;;;;;14.08;100.00;99835.84;5057488;28;20458;-56
2022/09/25 03:24:15;;;;;;;2.50;2.40;;;;;;;14.04;100.00;99846.78;5062545;28;20457;-56
2022/09/25 03:26:41;;;;;;;3.17;1.80;;;;;;;14.04;100.00;99838.75;5060141;28;20503;-55
2022/09/25 03:29:08;;;;;;;2.87;1.77;;;;;;;14.05;100.00;99843.16;5051859;28;20446;-56
2022/09/25 03:31:35;;;;;;;2.40;2.30;;;;;;;13.99;100.00;99838.13;5061306;28;20457;-55
2022/09/25 03:34:01;;;;;;;3.10;1.47;;;;;;;13.93;100.00;99841.97;5056178;28;20515;-56
2022/09/25 03:36:29;;;;;;;1.50;1.40;;;;;;;13.93;100.00;99842.81;5057573;28;20454;-56
2022/09/25 03:39:00;;;;;;;1.00;0.90;;;;;;;13.88;100.00;99839.53;5062406;28;20458;-55
2022/09/25 03:41:29;;;;;;;0.97;0.87;;;;;;;13.98;100.00;99831.03;5061347;28;20497;-56
2022/09/25 03:43:57;;;;;;;0.93;0.83;;;;;;;13.91;100.00;99830.50;5055360;28;20986;-56
2022/09/25 03:46:25;;;;;;;2.67;1.77;;;;;;;13.93;100.00;99841.97;5055925;28;20447;-56
2022/09/25 03:48:53;;;;;;;1.30;1.20;;;;;;;13.88;100.00;99839.53;5042708;28;20883;-56
2022/09/25 03:51:20;;;;;;;1.10;1.10;;;;;;;13.85;100.00;99831.66;5063809;28;21027;-55
2022/09/25 03:53:48;;;;;;;1.23;0.90;;;;;;;13.82;100.00;99833.59;5067849;28;20486;-56
2022/09/25 03:56:23;;;;;;;25.73;1.30;;;;;;;13.74;100.00;99831.31;5053524;28;20447;-56
2022/09/25 03:58:53;;;;;;;1.03;0.93;;;;;;;13.76;100.00;99832.09;5058892;28;20449;-55
2022/09/25 04:01:20;;;;;;;1.23;1.13;;;;;;;13.85;100.00;99830.81;5055070;28;20520;-55
2022/09/25 04:03:47;;;;;;;0.97;0.97;;;;;;;13.83;100.00;99825.50;5057549;28;20529;-55
2022/09/25 04:06:17;;;;;;;0.67;0.63;;;;;;;13.88;100.00;99827.97;5052862;28;20454;-56
2022/09/25 04:08:45;;;;;;;1.00;0.83;;;;;;;13.92;100.00;99824.19;5057745;28;20478;-56
2022/09/25 04:11:12;;;;;;;0.87;0.70;;;;;;;13.85;100.00;99820.97;5062023;28;20454;-56
2022/09/25 04:13:40;;;;;;;0.97;0.83;;;;;;;13.83;100.00;99821.97;5059418;28;20848;-56
2022/09/25 04:16:07;;;;;;;1.20;1.10;;;;;;;13.91;100.00;99826.00;5059882;28;20451;-56
2022/09/25 04:18:34;;;;;;;6.50;1.23;;;;;;;14.18;100.00;99822.88;5060208;28;20461;-55
2022/09/25 04:21:03;;;;;;;2.03;1.83;;;;;;;14.30;100.00;99832.09;5057437;28;20809;-55
2022/09/25 04:23:30;;;;;;;1.27;1.17;;;;;;;14.30;100.00;99824.94;5057463;28;20475;-56
2022/09/25 04:25:57;;;;;;;2.40;1.13;;;;;;;14.34;100.00;99834.53;5056543;28;20458;-56
2022/09/25 04:28:24;;;;;;;1.73;1.50;;;;;;;14.66;100.00;99832.88;5056118;28;20455;-55
2022/09/25 04:30:51;;;;;;;1.80;1.70;;;;;;;14.41;100.00;99829.75;5061538;28;20447;-56
2022/09/25 04:36:03;;;;;;;2.07;1.97;;;;;;;14.45;100.00;99832.19;5054227;28;20449;-56
2022/09/25 04:38:31;;;;;;;1.43;1.33;;;;;;;14.27;100.00;99829.59;5054892;28;20454;-56
2022/09/25 04:41:00;;;;;;;0.70;0.70;;;;;;;14.11;100.00;99835.69;5058998;28;20502;-56
2022/09/25 04:43:28;;;;;;;1.30;1.20;;;;;;;14.10;100.00;99836.63;5061983;28;20474;-55
2022/09/25 04:45:58;;;;;;;1.30;1.20;;;;;;;14.01;100.00;99836.25;5058450;28;20449;-56
2022/09/25 04:48:25;;;;;;;1.60;1.50;;;;;;;14.02;100.00;99832.63;5051002;28;20455;-56
2022/09/25 04:50:51;;;;;;;2.33;1.07;;;;;;;13.98;100.00;99831.03;5059067;28;20446;-56
2022/09/25 04:53:18;;;;;;;2.40;0.93;;;;;;;13.96;100.00;99832.91;5064439;28;20486;-56
2022/09/25 04:55:49;;;;;;;1.67;1.10;;;;;;;13.96;100.00;99835.59;5063127;28;20454;-56
2022/09/25 04:58:15;;;;;;;2.37;2.27;;;;;;;13.99;100.00;99833.66;5065926;28;20457;-55
2022/09/25 05:00:42;;;;;;;1.07;0.97;;;;;;;13.97;100.00;99838.19;5064157;28;20489;-56
2022/09/25 05:03:08;;;;;;;1.87;1.77;;;;;;;13.91;100.00;99831.34;5058123;28;20474;-56
2022/09/25 05:05:35;;;;;;;1.23;1.13;;;;;;;13.98;100.00;99831.03;5059547;28;20931;-55
2022/09/25 05:08:01;;;;;;;1.57;1.47;;;;;;;14.00;100.00;99834.53;5065166;28;20443;-56
2022/09/25 05:10:31;;;;;;;1.57;1.00;;;;;;;14.00;100.00;99839.88;5064314;28;20935;-56
2022/09/25 05:13:00;;;;;;;1.37;1.10;;;;;;;13.97;100.00;99840.84;5058012;28;20473;-56
2022/09/25 05:15:28;;;;;;;1.17;1.07;;;;;;;14.16;100.00;99833.66;5058212;28;20451;-56
2022/09/25 05:18:11;;;;;;;1.53;1.33;;;;;;;14.23;100.00;99831.53;5064551;28;20942;-55
2022/09/25 05:20:37;;;;;;;2.73;2.53;;;;;;;14.16;100.00;99830.13;5064642;28;20496;-55
2022/09/25 05:23:04;;;;;;;2.33;2.23;;;;;;;14.07;100.00;99833.25;5061400;28;20469;-55
2022/09/25 05:25:31;;;;;;;2.03;1.93;;;;;;;14.09;100.00;99824.22;5057943;28;20458;-55
2022/09/25 05:27:59;;;;;;;1.43;1.33;;;;;;;14.06;100.00;99831.53;5065197;28;20551;-55
2022/09/25 05:30:28;;;;;;;12.63;2.47;;;;;;;14.04;100.00;99836.94;5058357;28;20445;-55
2022/09/25 05:32:59;;;;;;;2.80;2.70;;;;;;;13.98;100.00;99836.38;5060932;28;20524;-55
2022/09/25 05:35:28;;;;;;;1.93;1.27;;;;;;;14.00;100.00;99837.19;5062212;28;20454;-55
2022/09/25 05:37:54;;;;;;;2.33;2.03;;;;;;;14.04;100.00;99838.75;5059703;28;20959;-56
2022/09/25 05:40:22;;;;;;;1.40;1.30;;;;;;;13.98;100.00;99837.28;5064495;28;20494;-56
2022/09/25 05:42:50;;;;;;;2.30;1.87;;;;;;;14.02;100.00;99838.84;5062920;28;20497;-56
2022/09/25 05:45:19;;;;;;;4.53;2.50;;;;;;;13.99;100.00;99848.81;5057525;28;20928;-56
2022/09/25 05:47:46;;;;;;;2.50;1.70;;;;;;;13.97;100.00;99848.88;5059116;28;20451;-55
2022/09/25 05:50:15;;;;;;;3.10;2.30;;;;;;;13.95;100.00;99842.75;5059672;28;20520;-55
2022/09/25 05:52:41;;;;;;;2.63;1.67;;;;;;;13.97;100.00;99848.00;5063634;28;20489;-55
2022/09/25 05:55:09;;;;;;;2.50;2.40;;;;;;;13.94;100.00;99841.00;5057876;28;20942;-55
2022/09/25 05:57:36;;;;;;;3.10;2.17;;;;;;;13.94;100.00;99847.22;5057258;28;20451;-55
2022/09/25 06:00:06;;;;;;;2.80;2.60;;;;;;;13.96;100.00;99846.28;5064293;28;20979;-55
2022/09/25 06:02:33;;;;;;;3.93;2.60;;;;;;;14.02;100.00;99849.53;5063724;28;20477;-55
2022/09/25 06:04:59;;;;;;;2.30;2.10;;;;;;;14.03;100.00;99856.59;5052228;28;20455;-55
2022/09/25 06:07:26;;;;;;;2.00;1.90;;;;;;;14.09;100.00;99863.44;5064580;28;20450;-55
2022/09/25 06:09:52;;;;;;;2.13;1.90;;;;;;;14.11;100.00;99854.41;5058345;28;20870;-56
2022/09/25 06:12:18;;;;;;;2.40;2.27;;;;;;;14.14;100.00;99853.41;5056817;28;20475;-56
2022/09/25 06:14:45;;;;;;;2.00;1.80;;;;;;;14.14;100.00;99848.06;5055944;28;20454;-56
2022/09/25 06:17:12;;;;;;;3.33;2.33;;;;;;;14.03;100.00;99859.28;5051883;28;20455;-56
2022/09/25 06:19:39;;;;;;;2.70;2.50;;;;;;;14.17;100.00;99859.44;5062729;28;20505;-56
2022/09/25 06:22:05;;;;;;;3.13;2.93;;;;;;;14.19;100.00;99862.03;5063327;28;20851;-56
2022/09/25 06:24:31;;;;;;;1.40;1.30;;;;;;;14.22;100.00;99862.75;5058883;28;20458;-56
2022/09/25 06:26:58;;;;;;;3.00;1.83;;;;;;;14.29;100.00;99870.47;5057137;28;20500;-55
2022/09/25 06:29:24;;;;;;;1.80;1.70;;;;;;;14.41;100.00;99856.47;5057748;28;20486;-55
2022/09/25 06:31:51;;;;;;;2.10;2.00;;;;;;;14.38;100.00;99865.50;5053679;28;21042;-56
2022/09/25 06:34:18;;;;;;;4.33;1.63;;;;;;;14.26;100.00;99862.63;5061464;28;20989;-56
2022/09/25 06:36:45;;;;;;;1.70;1.23;;;;;;;14.35;100.00;99859.47;5063581;28;20953;-56
2022/09/25 06:39:11;;;;;;;2.13;1.97;;;;;;;14.37;100.00;99865.59;5058908;28;20465;-56
2022/09/25 06:41:37;;;;;;;4.20;2.67;;;;;;;14.28;100.00;99861.59;5056363;28;20495;-55
2022/09/25 06:44:04;;;;;;;2.50;2.30;;;;;;;14.35;100.00;99864.81;5061145;28;20846;-56
2022/09/25 06:46:30;;;;;;;1.97;1.87;;;;;;;14.29;100.00;99863.31;5063958;28;20449;-56
2022/09/25 06:48:57;;;;;;;6.70;2.47;;;;;;;14.20;100.00;99869.13;5058752;28;21021;-56
2022/09/25 06:51:27;;;;;;;6.00;1.53;;;;;;;14.20;100.00;99866.44;5063084;28;20458;-55
2022/09/25 06:53:54;;;;;;;2.00;1.87;;;;;;;14.21;100.00;99857.47;5058789;28;20486;-56
2022/09/25 06:56:21;;;;;;;3.97;2.33;;;;;;;14.21;100.00;99862.81;5053279;28;20477;-56
2022/09/25 06:58:47;;;;;;;2.90;2.70;;;;;;;14.31;100.00;99863.25;5059898;28;20454;-56
2022/09/25 07:01:14;;;;;;;2.33;2.13;;;;;;;14.35;100.00;99862.13;5057264;28;20487;-56
2022/09/25 07:03:43;;;;;;;3.43;2.50;;;;;;;14.29;100.00;99865.13;5060352;28;20474;-56
2022/09/25 07:06:32;;;;;;;2.83;2.53;;;;;;;14.26;100.00;99866.16;5053602;28;20454;-55
2022/09/25 07:08:59;;;;;;;2.73;2.33;;;;;;;14.29;100.00;99863.31;5057173;28;20450;-55
2022/09/25 07:11:32;;;;;;;2.33;2.23;;;;;;;14.38;100.00;99862.81;5039254;28;20981;-56
2022/09/25 07:13:59;;;;;;;2.80;2.20;;;;;;;14.40;100.00;99866.31;5063884;28;20445;-55
2022/09/25 07:16:28;;;;;;;2.17;2.00;;;;;;;14.66;100.00;99869.47;5056759;28;20454;-56
2022/09/25 07:18:59;;;;;;;3.13;2.97;;;;;;;14.47;100.00;99867.75;5064060;28;20449;-56
2022/09/25 07:21:29;;;;;;;3.77;2.50;;;;;;;14.42;100.00;99872.44;5051970;28;20482;-56
2022/09/25 07:23:57;;;;;;;2.47;2.27;;;;;;;14.56;100.00;99871.78;5062901;28;20469;-56
2022/09/25 07:26:28;;;;;;;3.10;2.90;;;;;;;14.63;100.00;99869.63;5059777;28;20977;-56
2022/09/25 07:28:57;;;;;;;3.90;3.53;;;;;;;14.81;100.00;99871.38;5056760;28;20526;-56
2022/09/25 07:31:27;;;;;;;3.50;3.20;;;;;;;14.67;100.00;99869.41;5059571;28;20895;-56
2022/09/25 07:33:54;;;;;;;8.37;3.70;;;;;;;14.64;100.00;99874.03;5058409;28;20477;-56
2022/09/25 07:36:20;;;;;;;4.40;4.00;;;;;;;14.55;100.00;99874.53;5058580;28;20812;-56
2022/09/25 07:38:51;;;;;;;4.87;4.47;;;;;;;14.75;100.00;99869.00;5053344;28;20863;-56
2022/09/25 07:41:21;;;;;;;9.47;4.70;;;;;;;14.70;100.00;99869.25;5059958;28;20516;-56
2022/09/25 07:43:52;;;;;;;5.83;4.97;;;;;;;14.60;100.00;99869.78;5052442;28;20543;-56
2022/09/25 07:46:41;;;;;;;4.70;4.30;;;;;;;14.66;100.00;99874.81;5049674;28;20450;-56
2022/09/25 07:49:08;;;;;;;7.37;4.83;;;;;;;14.95;100.00;99873.31;5056610;28;20454;-56
2022/09/25 07:51:34;;;;;;;5.07;3.63;;;;;;;14.79;100.00;99874.09;5059000;28;20450;-56
2022/09/25 07:54:01;;;;;;;4.87;4.57;;;;;;;14.95;100.00;99873.31;5058602;28;20462;-56
2022/09/25 07:56:27;;;;;;;9.80;5.33;;;;;;;15.05;100.00;99878.06;5064308;28;20503;-56
2022/09/25 07:58:53;;;;;;;5.67;5.10;;;;;;;14.88;100.00;99878.09;5058618;28;20455;-56
2022/09/25 08:01:20;;;;;;;5.63;5.27;;;;;;;14.87;100.00;99871.03;5061860;28;20529;-56
2022/09/25 08:03:48;;;;;;;5.40;3.80;;;;;;;15.06;100.00;99877.13;5059068;28;20474;-56
2022/09/25 08:06:14;;;;;;;5.03;4.63;;;;;;;15.00;100.00;99877.47;5064784;28;20446;-56
2022/09/25 08:08:42;;;;;;;4.83;4.17;;;;;;;15.03;100.00;99871.94;5059928;28;20449;-56
2022/09/25 08:11:11;;;;;;;4.43;4.13;;;;;;;14.98;100.00;99879.34;5055017;28;20942;-56
2022/09/25 08:13:38;;;;;;;4.87;4.50;;;;;;;15.00;100.00;99882.81;5057251;28;20466;-56
2022/09/25 08:16:06;;;;;;;6.50;3.17;;;;;;;15.14;100.00;99887.44;5062078;28;20516;-56
2022/09/25 08:18:33;;;;;;;4.93;3.23;;;;;;;15.45;100.00;99877.72;5060110;28;20454;-56
2022/09/25 08:21:01;;;;;;;10.83;4.90;;;;;;;15.53;100.00;99889.75;5054933;28;21013;-56
2022/09/25 08:23:27;;;;;;;6.30;4.67;;;;;;;15.25;100.00;99893.06;5056500;28;20572;-56
2022/09/25 08:25:54;;;;;;;7.00;5.90;;;;;;;15.31;100.00;99883.84;5061601;28;20455;-56
2022/09/25 08:28:21;;;;;;;5.10;4.53;;;;;;;15.28;100.00;99886.69;5063042;28;20507;-56
2022/09/25 08:30:48;;;;;;;4.80;4.50;;;;;;;15.45;100.00;99880.41;5059139;28;20948;-56
2022/09/25 08:33:14;;;;;;;5.43;5.00;;;;;;;15.46;100.00;99876.75;5060376;28;20471;-56
2022/09/25 08:35:42;;;;;;;6.87;4.70;;;;;;;15.42;100.00;99873.41;5054360;28;20461;-56
2022/09/25 08:38:11;;;;;;;4.20;3.90;;;;;;;15.33;100.00;99884.59;5065030;28;20466;-56
2022/09/25 08:40:47;;;;;;;4.43;4.13;;;;;;;15.37;100.00;99891.53;5058368;28;20461;-56
2022/09/25 08:43:19;;;;;;;4.23;3.90;;;;;;;15.34;100.00;99880.97;5058591;28;20484;-56
2022/09/25 08:51:30;;;;;;;4.97;4.47;;;;;;;15.56;100.00;99881.53;5067150;28;20461;-56
2022/09/25 08:53:58;;;;;;;4.60;4.27;;;;;;;15.51;100.00;99878.25;5063231;28;20450;-55
2022/09/25 08:56:28;;;;;;;4.63;4.20;;;;;;;15.54;100.00;99877.22;5056499;28;20462;-56
2022/09/25 08:59:10;;;;;;;5.00;4.37;;;;;;;15.66;100.00;99881.94;5058637;28;20455;-55
2022/09/25 09:01:46;;;;;;;3.40;3.10;;;;;;;15.69;100.00;99884.44;5063181;28;21262;-55
2022/09/25 09:04:27;;;;;;;4.00;3.70;;;;;;;15.77;100.00;99879.50;5057487;28;20492;-55
2022/09/25 09:07:02;;;;;;;3.83;3.60;;;;;;;15.84;100.00;99878.19;5053190;28;20450;-55
2022/09/25 09:10:27;;;;;;;5.20;4.70;;;;;;;15.87;100.00;99879.84;5063122;28;20491;-56
2022/09/25 09:13:09;;;;;;;5.50;3.67;;;;;;;15.74;100.00;99881.47;5050110;28;20527;-56
2022/09/25 09:15:45;;;;;;;13.67;5.33;;;;;;;15.90;100.00;99883.22;5053683;28;20963;-56
2022/09/25 09:18:27;;;;;;;8.50;5.40;;;;;;;15.90;100.00;99888.59;5063808;28;20538;-55
2022/09/25 09:20:56;;;;;;;6.73;5.40;;;;;;;15.84;100.00;99893.41;5057221;28;20454;-56
2022/09/25 09:23:32;;;;;;;3.87;3.60;;;;;;;15.75;100.00;99892.09;5060362;28;20471;-55
2022/09/25 09:26:03;;;;;;;5.67;5.23;;;;;;;15.77;100.00;99894.72;5065142;28;20446;-55
2022/09/25 09:28:55;;;;;;;3.30;3.10;;;;;;;15.88;100.00;99894.97;5064759;28;20450;-54
2022/09/25 09:32:00;;;;;;;8.93;5.30;;;;;;;15.67;100.00;99897.91;5061474;28;20869;-55
2022/09/25 09:34:48;;;;;;;4.77;4.37;;;;;;;15.78;100.00;99888.41;5046737;28;20449;-55
2022/09/25 09:37:48;;;;;;;13.50;3.73;;;;;;;16.03;100.00;99890.53;5046981;28;20449;-53
2022/09/25 09:40:27;;;;;;;4.83;4.53;;;;;;;15.78;100.00;99883.06;5056907;28;20478;-53
2022/09/25 09:43:06;;;;;;;6.00;5.50;;;;;;;15.76;100.00;99892.97;5059027;28;20576;-55
2022/09/25 09:45:58;;;;;;;5.60;3.73;;;;;;;15.65;100.00;99886.41;5045904;28;20457;-62
2022/09/25 09:48:33;;;;;;;3.93;3.73;;;;;;;15.75;100.00;99884.06;5057376;28;20957;-54
2022/09/25 09:51:15;;;;;;;4.73;4.37;;;;;;;15.87;100.00;99882.50;5054502;28;20503;-54
2022/09/25 09:53:48;;;;;;;5.50;4.00;;;;;;;15.84;100.00;99880.00;5038220;28;20475;-54
2022/09/25 09:56:20;;;;;;;6.50;5.93;;;;;;;15.88;100.00;99877.06;5060842;28;20434;-55
2022/09/25 09:59:00;;;;;;;6.87;5.27;;;;;;;15.85;100.00;99871.88;5061196;28;20892;-54
2022/09/25 10:01:36;;;;;;;6.33;4.70;;;;;;;15.85;100.00;99876.38;5054511;28;20552;-56
2022/09/25 10:04:11;;;;;;;18.03;4.90;;;;;;;15.79;100.00;99876.75;5047165;28;20442;-54
2022/09/25 10:06:42;;;;;;;5.43;4.90;;;;;;;15.90;100.00;99877.88;5038996;28;20451;-54
2022/09/25 10:09:15;;;;;;;4.70;4.30;;;;;;;16.14;100.00;99878.25;5064135;28;20447;-54
2022/09/25 10:11:44;;;;;;;5.50;5.10;;;;;;;15.89;100.00;99873.44;5058473;28;20471;-54
2022/09/25 10:14:18;;;;;;;5.27;4.80;;;;;;;16.19;100.00;99878.88;5057025;28;20541;-55
2022/09/25 10:16:45;;;;;;;7.60;3.97;;;;;;;15.95;100.00;99872.22;5060058;28;20451;-55
2022/09/25 10:19:20;;;;;;;16.77;5.20;;;;;;;15.99;100.00;99873.78;5061839;28;20457;-54
2022/09/25 10:22:13;;;;;;;4.53;4.13;;;;;;;15.74;100.00;99873.44;5058047;28;20493;-54
2022/09/25 10:25:01;;;;;;;4.73;4.00;;;;;;;15.83;100.00;99878.28;5054727;28;20485;-54
2022/09/25 10:27:40;;;;;;;5.00;4.60;;;;;;;16.01;100.00;99877.22;5063933;28;20450;-60
2022/09/25 10:30:09;;;;;;;6.57;5.97;;;;;;;16.09;100.00;99874.13;5051979;28;20450;-54
2022/09/25 10:33:10;;;;;;;4.07;3.67;;;;;;;16.24;100.00;99875.91;5062440;28;20467;-53
2022/09/25 10:35:36;;;;;;;4.10;3.50;;;;;;;16.04;100.00;99876.22;5063204;28;21090;-54
2022/09/25 10:38:05;;;;;;;6.33;4.33;;;;;;;16.16;100.00;99872.78;5057667;28;20465;-54
2022/09/25 10:40:36;;;;;;;4.83;4.43;;;;;;;16.38;100.00;99873.28;5063319;28;20528;-54
2022/09/25 10:43:22;;;;;;;5.77;5.27;;;;;;;16.58;100.00;99872.06;5044594;28;21055;-54
2022/09/25 10:46:03;;;;;;;5.93;5.33;;;;;;;16.47;100.00;99877.25;5060092;28;20807;-54
2022/09/25 10:51:17;;;;;;;4.03;3.83;;;;;;;15.95;100.00;99870.41;5050601;28;20446;-53
2022/09/25 10:53:45;;;;;;;5.30;4.60;;;;;;;15.93;100.00;99871.47;5066969;28;20478;-53
2022/09/25 10:56:17;;;;;;;5.27;3.40;;;;;;;16.15;100.00;99866.56;5054650;28;20955;-53
2022/09/25 10:58:57;;;;;;;6.50;5.17;;;;;;;16.14;100.00;99872.88;5054660;28;20429;-53
2022/09/25 11:01:34;;;;;;;3.60;3.40;;;;;;;16.01;100.00;99871.88;5063008;28;20550;-53
2022/09/25 11:04:08;;;;;;;4.87;4.53;;;;;;;16.00;100.00;99868.31;5054335;28;21042;-53
2022/09/25 11:06:34;;;;;;;5.70;5.23;;;;;;;16.29;100.00;99874.66;5051959;28;20794;-53
2022/09/25 11:09:03;;;;;;;4.07;3.70;;;;;;;16.47;100.00;99874.56;5062516;28;20461;-54
2022/09/25 11:11:30;;;;;;;6.73;5.50;;;;;;;16.75;100.00;99876.47;5044924;28;20465;-53
2022/09/25 11:14:00;;;;;;;5.73;4.23;;;;;;;16.58;100.00;99866.69;5056735;28;20508;-53
2022/09/25 11:16:46;;;;;;;5.73;5.17;;;;;;;16.53;100.00;99871.50;5047143;28;20457;-53
2022/09/25 11:19:35;;;;;;;4.70;4.40;;;;;;;16.46;100.00;99872.84;5061340;28;20462;-54
2022/09/25 11:22:03;;;;;;;3.93;3.50;;;;;;;16.41;100.00;99883.81;5050004;28;20491;-53
2022/09/25 11:24:54;;;;;;;11.43;5.40;;;;;;;16.28;100.00;99889.03;5054654;28;20950;-53
2022/09/25 11:27:47;;;;;;;2.60;2.40;;;;;;;16.13;100.00;99883.72;5060416;28;20462;-53
2022/09/25 11:30:18;;;;;;;4.70;4.40;;;;;;;15.86;100.00;99876.28;5049807;28;20879;-53
2022/09/25 11:33:12;;;;;;;16.50;3.47;;;;;;;15.86;100.00;99886.16;5052078;28;20583;-53
2022/09/25 11:35:49;;;;;;;4.70;4.10;;;;;;;15.68;100.00;99878.22;5060123;28;20454;-53
2022/09/25 11:41:25;;;;;;;2.27;2.17;;;;;;;15.94;100.00;99883.91;5054528;28;20516;-53
2022/09/25 11:44:04;;;;;;;2.43;2.23;;;;;;;15.90;100.00;99885.03;5059538;28;20474;-53
2022/09/25 11:46:52;;;;;;;5.13;2.43;;;;;;;15.69;100.00;99887.97;5055624;28;20462;-53
2022/09/25 11:49:39;;;;;;;5.20;2.13;;;;;;;15.74;100.00;99894.88;5060344;28;20511;-53
2022/09/25 11:52:43;;;;;;;2.50;1.57;;;;;;;15.54;100.00;99888.78;5051194;28;21052;-53
2022/09/25 11:55:27;;;;;;;2.30;2.20;;;;;;;15.41;100.00;99891.28;5055357;28;20811;-53
2022/09/25 11:58:13;;;;;;;2.13;2.03;;;;;;;15.19;100.00;99889.84;5037428;28;20460;-53
2022/09/25 12:01:08;;;;;;;1.30;1.20;;;;;;;15.23;100.00;99891.44;5057221;28;20475;-54
2022/09/25 12:03:54;;;;;;;1.13;0.93;;;;;;;15.08;100.00;99890.44;5056322;28;20525;-53
2022/09/25 12:06:29;;;;;;;4.10;2.43;;;;;;;15.11;100.00;99896.50;5055220;28;20548;-54
2022/09/25 12:09:26;;;;;;;1.10;1.00;;;;;;;15.08;100.00;99891.31;5061063;28;20453;-54